Time;durP1;ratioP1;P1;durP2;ratioP2;P2;SDS_P1;SDS_P2;PMS_P1;PMS_P2;Temp;Humidity;BMP_temperature;BMP_pressure;BME280_temperature;BME280_humidity;BME280_pressure;Samples;Min_cycle;Max_cycle;Signal;HPM_P1;HPM_P2
2022/07/01 00:00:46;;;;;;;7.85;6.40;;;;;;;;;;5014151;28;20269;-69
2022/07/01 00:03:11;;;;;;;8.55;6.15;;;;;;;;;;5010055;28;20187;-68
2022/07/01 00:05:37;;;;;;;8.38;6.90;;;;;;;;;;5013126;28;20211;-69
2022/07/01 00:08:02;;;;;;;10.90;7.07;;;;;;;;;;5012535;28;20190;-68
2022/07/01 00:10:28;;;;;;;11.13;7.75;;;;;;;;;;5015500;28;20185;-68
2022/07/01 00:12:53;;;;;;;11.85;8.18;;;;;;;;;;5013455;28;20289;-70
2022/07/01 00:15:18;;;;;;;10.20;8.60;;;;;;;;;;5014321;28;20626;-68
2022/07/01 00:17:44;;;;;;;12.25;9.45;;;;;;;;;;5015936;28;20629;-68
2022/07/01 00:20:10;;;;;;;13.18;9.48;;;;;;;;;;5018557;28;20183;-68
2022/07/01 00:22:36;;;;;;;12.00;9.73;;;;;;;;;;5014855;28;20530;-67
2022/07/01 00:25:02;;;;;;;11.35;9.45;;;;;;;;;;5012446;28;20244;-67
2022/07/01 00:27:27;;;;;;;12.30;9.75;;;;;;;;;;5018462;28;20626;-68
2022/07/01 00:29:53;;;;;;;15.15;11.35;;;;;;;;;;5011206;28;20318;-66
2022/07/01 00:32:18;;;;;;;15.63;11.52;;;;;;;;;;5013370;28;20230;-69
2022/07/01 00:34:43;;;;;;;16.02;11.50;;;;;;;;;;5026201;28;20273;-68
2022/07/01 00:37:09;;;;;;;15.57;11.68;;;;;;;;;;5016060;28;20301;-67
2022/07/01 00:39:35;;;;;;;15.25;11.90;;;;;;;;;;5007629;28;20709;-67
2022/07/01 00:42:01;;;;;;;14.20;10.80;;;;;;;;;;5012133;28;20203;-67
2022/07/01 00:44:27;;;;;;;18.55;12.93;;;;;;;;;;5035358;28;20270;-69
2022/07/01 00:46:53;;;;;;;18.00;13.02;;;;;;;;;;5015837;28;20694;-69
2022/07/01 00:49:19;;;;;;;17.17;11.85;;;;;;;;;;5016183;28;20189;-69
2022/07/01 00:51:45;;;;;;;16.42;12.55;;;;;;;;;;5014341;28;20284;-68
2022/07/01 00:54:11;;;;;;;14.93;12.00;;;;;;;;;;5009025;28;20313;-65
2022/07/01 00:56:37;;;;;;;17.23;12.30;;;;;;;;;;5013990;28;20268;-68
2022/07/01 00:59:03;;;;;;;15.23;12.05;;;;;;;;;;5000672;28;20694;-67
2022/07/01 01:01:29;;;;;;;15.85;12.20;;;;;;;;;;5015032;28;20203;-68
2022/07/01 01:03:55;;;;;;;14.73;11.57;;;;;;;;;;5010957;28;20273;-68
2022/07/01 01:06:21;;;;;;;17.13;13.00;;;;;;;;;;5016445;28;20185;-68
2022/07/01 01:08:48;;;;;;;15.57;12.50;;;;;;;;;;5012342;28;20186;-68
2022/07/01 01:11:15;;;;;;;13.23;11.15;;;;;;;;;;5014830;28;20192;-66
2022/07/01 01:13:40;;;;;;;16.58;12.50;;;;;;;;;;5008846;28;20193;-67
2022/07/01 01:16:06;;;;;;;16.08;12.15;;;;;;;;;;5012035;28;20191;-68
2022/07/01 01:18:31;;;;;;;15.68;11.60;;;;;;;;;;5011697;28;20233;-68
2022/07/01 01:20:56;;;;;;;16.48;12.25;;;;;;;;;;5015218;28;20263;-67
2022/07/01 01:23:22;;;;;;;13.45;11.23;;;;;;;;;;5011090;28;20231;-68
2022/07/01 01:25:48;;;;;;;15.60;11.98;;;;;;;;;;5019266;28;20190;-68
2022/07/01 01:28:13;;;;;;;15.15;11.40;;;;;;;;;;5009140;28;20189;-68
2022/07/01 01:30:39;;;;;;;15.30;11.77;;;;;;;;;;5018112;28;20230;-68
2022/07/01 01:33:07;;;;;;;14.95;11.65;;;;;;;;;;5012249;28;20225;-68
2022/07/01 01:35:33;;;;;;;13.95;10.85;;;;;;;;;;5010176;28;20190;-69
2022/07/01 01:37:58;;;;;;;14.48;10.73;;;;;;;;;;5009743;28;20517;-67
2022/07/01 01:40:24;;;;;;;15.15;11.43;;;;;;;;;;5011773;28;20268;-68
2022/07/01 01:42:49;;;;;;;16.00;10.77;;;;;;;;;;5008758;28;20698;-66
2022/07/01 01:45:14;;;;;;;15.75;11.48;;;;;;;;;;5014863;28;20183;-67
2022/07/01 01:47:41;;;;;;;13.55;10.88;;;;;;;;;;5015913;28;20221;-68
2022/07/01 01:50:07;;;;;;;13.77;10.90;;;;;;;;;;5015966;28;20625;-68
2022/07/01 01:52:33;;;;;;;14.70;11.18;;;;;;;;;;5005848;28;20199;-66
2022/07/01 01:54:59;;;;;;;16.65;11.88;;;;;;;;;;5009627;28;20181;-67
2022/07/01 01:57:24;;;;;;;17.65;12.10;;;;;;;;;;5011939;28;20497;-66
2022/07/01 01:59:50;;;;;;;16.33;12.40;;;;;;;;;;5005319;28;20244;-64
2022/07/01 02:02:16;;;;;;;17.90;12.07;;;;;;;;;;5009123;28;20249;-65
2022/07/01 02:04:41;;;;;;;17.27;12.82;;;;;;;;;;5011425;28;20189;-65
2022/07/01 02:07:07;;;;;;;18.67;13.32;;;;;;;;;;5012480;28;20218;-66
2022/07/01 02:09:32;;;;;;;19.63;14.40;;;;;;;;;;5011641;28;20272;-65
2022/07/01 02:11:57;;;;;;;26.55;16.88;;;;;;;;;;5008787;28;20186;-64
2022/07/01 02:14:23;;;;;;;32.90;17.80;;;;;;;;;;5010741;28;21710;-66
2022/07/01 02:16:48;;;;;;;27.15;17.75;;;;;;;;;;5008467;28;20626;-66
2022/07/01 02:19:13;;;;;;;27.13;19.00;;;;;;;;;;5008915;28;20600;-65
2022/07/01 02:21:39;;;;;;;28.48;17.98;;;;;;;;;;5012892;28;20578;-66
2022/07/01 02:24:04;;;;;;;27.50;18.45;;;;;;;;;;5007797;28;20642;-66
2022/07/01 02:26:30;;;;;;;27.58;18.95;;;;;;;;;;5004951;28;20298;-67
2022/07/01 02:28:55;;;;;;;27.85;19.15;;;;;;;;;;5008258;28;20230;-67
2022/07/01 02:31:20;;;;;;;29.60;19.00;;;;;;;;;;5013270;28;20210;-66
2022/07/01 02:33:46;;;;;;;31.63;18.90;;;;;;;;;;5003165;28;20258;-67
2022/07/01 02:36:11;;;;;;;29.25;18.60;;;;;;;;;;5009318;28;20192;-67
2022/07/01 02:38:36;;;;;;;31.00;20.25;;;;;;;;;;5002851;28;20256;-67
2022/07/01 02:41:02;;;;;;;32.78;20.33;;;;;;;;;;5011489;28;20207;-66
2022/07/01 02:43:27;;;;;;;29.88;19.65;;;;;;;;;;5011724;28;20178;-66
2022/07/01 02:45:52;;;;;;;31.55;20.95;;;;;;;;;;5005309;28;20329;-65
2022/07/01 02:48:18;;;;;;;30.98;20.95;;;;;;;;;;5007992;28;20665;-66
2022/07/01 02:50:43;;;;;;;30.55;21.17;;;;;;;;;;5009824;28;20237;-65
2022/07/01 02:53:08;;;;;;;33.70;20.17;;;;;;;;;;5011695;28;20202;-66
2022/07/01 02:55:34;;;;;;;31.25;20.98;;;;;;;;;;5000191;28;20192;-70
2022/07/01 02:57:59;;;;;;;33.05;20.95;;;;;;;;;;5011818;28;20266;-66
2022/07/01 03:00:25;;;;;;;35.45;22.08;;;;;;;;;;5025733;28;20187;-68
2022/07/01 03:02:50;;;;;;;36.72;21.92;;;;;;;;;;5011333;28;20190;-66
2022/07/01 03:05:16;;;;;;;31.58;20.67;;;;;;;;;;5012701;28;20565;-66
2022/07/01 03:07:41;;;;;;;36.50;22.48;;;;;;;;;;5013865;28;20190;-66
2022/07/01 03:10:08;;;;;;;37.97;23.08;;;;;;;;;;5011747;28;20667;-67
2022/07/01 03:12:38;;;;;;;37.70;23.08;;;;;;;;;;5010248;28;21246;-67
2022/07/01 03:15:06;;;;;;;35.45;24.30;;;;;;;;;;5012697;28;20240;-67
2022/07/01 03:17:33;;;;;;;35.63;23.60;;;;;;;;;;5002963;28;20195;-68
2022/07/01 03:20:00;;;;;;;39.22;24.75;;;;;;;;;;5005157;28;20185;-66
2022/07/01 03:22:28;;;;;;;39.50;24.42;;;;;;;;;;4999617;28;20206;-68
2022/07/01 03:24:54;;;;;;;42.47;26.00;;;;;;;;;;5008071;28;20195;-67
2022/07/01 03:27:20;;;;;;;45.53;26.60;;;;;;;;;;5019234;28;20185;-67
2022/07/01 03:29:46;;;;;;;41.10;25.75;;;;;;;;;;5003074;28;20237;-67
2022/07/01 03:32:11;;;;;;;43.25;27.38;;;;;;;;;;5023604;28;20572;-66
2022/07/01 03:34:39;;;;;;;42.15;26.27;;;;;;;;;;5015211;28;20191;-68
2022/07/01 03:37:06;;;;;;;44.15;27.27;;;;;;;;;;5016582;28;20178;-66
2022/07/01 03:39:32;;;;;;;45.35;27.00;;;;;;;;;;5014068;28;20194;-66
2022/07/01 03:41:58;;;;;;;40.80;26.25;;;;;;;;;;5015351;28;20285;-66
2022/07/01 03:44:23;;;;;;;46.00;26.95;;;;;;;;;;5014784;28;20269;-64
2022/07/01 03:46:49;;;;;;;39.60;25.88;;;;;;;;;;5016956;28;20314;-63
2022/07/01 03:49:14;;;;;;;46.17;27.85;;;;;;;;;;5015868;28;20182;-63
2022/07/01 03:51:39;;;;;;;41.30;25.48;;;;;;;;;;5015179;28;20522;-64
2022/07/01 03:56:48;;;;;;;40.22;23.65;;;;;;;;;;5012211;28;20286;-64
2022/07/01 03:59:14;;;;;;;37.65;25.30;;;;;;;;;;5021450;28;20453;-63
2022/07/01 04:01:39;;;;;;;46.78;27.75;;;;;;;;;;5009959;28;20203;-64
2022/07/01 04:04:04;;;;;;;40.88;26.35;;;;;;;;;;5008837;28;20500;-64
2022/07/01 04:06:30;;;;;;;39.60;25.27;;;;;;;;;;5012001;28;20197;-65
2022/07/01 04:08:55;;;;;;;41.33;25.83;;;;;;;;;;5009905;28;20478;-65
2022/07/01 04:11:21;;;;;;;36.78;24.48;;;;;;;;;;5010760;28;20598;-64
2022/07/01 04:13:50;;;;;;;38.90;25.02;;;;;;;;;;5010802;28;20190;-64
2022/07/01 04:16:18;;;;;;;43.55;28.05;;;;;;;;;;5011120;28;20583;-65
2022/07/01 04:18:45;;;;;;;45.90;29.23;;;;;;;;;;5008048;28;20202;-65
2022/07/01 04:23:56;;;;;;;46.00;28.23;;;;;;;;;;5007438;28;20222;-66
2022/07/01 04:26:22;;;;;;;43.83;28.25;;;;;;;;;;5009947;28;20214;-66
2022/07/01 04:28:47;;;;;;;42.03;29.25;;;;;;;;;;5011317;28;20234;-65
2022/07/01 04:31:13;;;;;;;48.65;28.52;;;;;;;;;;5008671;28;20333;-66
2022/07/01 04:33:38;;;;;;;43.15;28.83;;;;;;;;;;5013092;28;20186;-65
2022/07/01 04:36:04;;;;;;;44.42;27.98;;;;;;;;;;5013128;28;20175;-65
2022/07/01 04:38:29;;;;;;;49.05;30.17;;;;;;;;;;5025517;28;20210;-65
2022/07/01 04:43:38;;;;;;;46.55;29.17;;;;;;;;;;5020027;28;20212;-65
2022/07/01 04:46:04;;;;;;;47.63;30.45;;;;;;;;;;5007916;28;20269;-64
2022/07/01 04:48:29;;;;;;;47.22;29.20;;;;;;;;;;5007457;28;20191;-65
2022/07/01 04:50:55;;;;;;;42.58;27.08;;;;;;;;;;5008548;28;20348;-64
2022/07/01 04:53:20;;;;;;;48.08;30.42;;;;;;;;;;5011568;28;20672;-65
2022/07/01 04:55:45;;;;;;;39.67;26.60;;;;;;;;;;5007019;28;20187;-65
2022/07/01 04:58:13;;;;;;;44.97;29.50;;;;;;;;;;5013422;28;20332;-65
2022/07/01 05:00:38;;;;;;;52.92;31.08;;;;;;;;;;5006759;28;20189;-65
2022/07/01 05:03:03;;;;;;;50.65;31.15;;;;;;;;;;5010207;28;20213;-65
2022/07/01 05:05:29;;;;;;;52.90;31.05;;;;;;;;;;5008437;28;20187;-65
2022/07/01 05:07:54;;;;;;;50.72;30.42;;;;;;;;;;5009017;28;20271;-64
2022/07/01 05:10:19;;;;;;;53.15;32.33;;;;;;;;;;5008460;28;20240;-64
2022/07/01 05:12:45;;;;;;;56.08;33.03;;;;;;;;;;5007605;28;20249;-65
2022/07/01 05:15:10;;;;;;;54.78;32.85;;;;;;;;;;5007429;28;20199;-65
2022/07/01 05:23:03;;;;;;;50.00;30.55;;;;;;;;;;5011161;28;20217;-65
2022/07/01 05:25:28;;;;;;;51.45;32.70;;;;;;;;;;5012252;28;20631;-65
2022/07/01 05:27:54;;;;;;;54.90;32.58;;;;;;;;;;5008584;28;20187;-64
2022/07/01 05:30:23;;;;;;;51.85;32.95;;;;;;;;;;5003982;28;20280;-65
2022/07/01 05:32:48;;;;;;;53.83;32.20;;;;;;;;;;5000658;28;20203;-66
2022/07/01 05:35:16;;;;;;;51.45;32.38;;;;;;;;;;5006742;28;20193;-66
2022/07/01 05:37:42;;;;;;;44.22;29.08;;;;;;;;;;4998388;28;20183;-65
2022/07/01 05:40:08;;;;;;;47.78;30.95;;;;;;;;;;5006000;28;20665;-65
2022/07/01 05:42:33;;;;;;;42.35;27.80;;;;;;;;;;5007168;28;20242;-66
2022/07/01 05:44:59;;;;;;;43.97;30.17;;;;;;;;;;5007112;28;20222;-64
2022/07/01 05:47:24;;;;;;;49.50;29.67;;;;;;;;;;5006541;28;20574;-65
2022/07/01 05:49:49;;;;;;;46.67;29.65;;;;;;;;;;5005235;28;20187;-64
2022/07/01 05:52:15;;;;;;;45.40;29.75;;;;;;;;;;5006862;28;20191;-64
2022/07/01 05:54:40;;;;;;;42.75;28.05;;;;;;;;;;5006170;28;20240;-65
2022/07/01 05:57:06;;;;;;;43.50;27.60;;;;;;;;;;5005582;28;20260;-64
2022/07/01 05:59:31;;;;;;;45.50;28.17;;;;;;;;;;5007862;28;20250;-64
2022/07/01 06:01:56;;;;;;;44.28;28.70;;;;;;;;;;5007780;28;20202;-65
2022/07/01 06:04:22;;;;;;;46.25;27.27;;;;;;;;;;5008645;28;20502;-65
2022/07/01 06:06:47;;;;;;;42.95;27.10;;;;;;;;;;5008692;28;20193;-65
2022/07/01 06:09:12;;;;;;;42.65;27.77;;;;;;;;;;5002243;28;20187;-64
2022/07/01 06:11:38;;;;;;;40.13;26.52;;;;;;;;;;5007884;28;20181;-64
2022/07/01 06:14:03;;;;;;;45.17;26.48;;;;;;;;;;5008658;28;20196;-65
2022/07/01 06:16:28;;;;;;;37.83;23.85;;;;;;;;;;5008929;28;20178;-63
2022/07/01 06:18:54;;;;;;;43.40;27.25;;;;;;;;;;5008123;28;20182;-63
2022/07/01 06:21:19;;;;;;;42.72;25.65;;;;;;;;;;5009628;28;20241;-66
2022/07/01 06:23:45;;;;;;;44.45;26.70;;;;;;;;;;5008138;28;20191;-66
2022/07/01 06:26:11;;;;;;;40.60;26.17;;;;;;;;;;5008536;28;20179;-64
2022/07/01 06:28:36;;;;;;;42.80;25.38;;;;;;;;;;5005431;28;20213;-64
2022/07/01 06:31:02;;;;;;;38.85;23.38;;;;;;;;;;5008207;28;20202;-66
2022/07/01 06:33:29;;;;;;;35.72;23.92;;;;;;;;;;5007134;28;20193;-66
2022/07/01 06:35:55;;;;;;;36.72;24.05;;;;;;;;;;5002114;28;20271;-64
2022/07/01 06:38:20;;;;;;;37.95;24.67;;;;;;;;;;4995993;28;20608;-66
2022/07/01 06:41:26;;;;;;;36.70;24.27;;;;;;;;;;5003002;28;20199;-64
2022/07/01 06:43:31;;;;;;;34.72;23.00;;;;;;;;;;5002867;28;20615;-65
2022/07/01 06:45:56;;;;;;;37.80;23.85;;;;;;;;;;5004232;28;20175;-64
2022/07/01 06:48:21;;;;;;;38.28;23.55;;;;;;;;;;5036743;28;20190;-64
2022/07/01 06:50:47;;;;;;;36.55;23.48;;;;;;;;;;5003810;28;20262;-63
2022/07/01 06:53:12;;;;;;;34.97;21.63;;;;;;;;;;5005433;28;20273;-63
2022/07/01 06:55:37;;;;;;;35.35;22.25;;;;;;;;;;5005560;28;20191;-64
2022/07/01 06:58:04;;;;;;;35.42;23.45;;;;;;;;;;5005205;28;20207;-64
2022/07/01 07:00:29;;;;;;;37.33;22.38;;;;;;;;;;5004705;28;20209;-66
2022/07/01 07:02:54;;;;;;;33.75;22.35;;;;;;;;;;5005783;28;20709;-64
2022/07/01 07:05:20;;;;;;;33.10;22.55;;;;;;;;;;5005496;28;20580;-64
2022/07/01 07:07:45;;;;;;;34.65;21.23;;;;;;;;;;5003838;28;20222;-65
2022/07/01 07:10:10;;;;;;;33.72;22.20;;;;;;;;;;5035005;28;20591;-63
2022/07/01 07:12:36;;;;;;;34.97;21.45;;;;;;;;;;5004641;28;20182;-67
2022/07/01 07:15:01;;;;;;;31.13;20.98;;;;;;;;;;5004441;28;20388;-65
2022/07/01 07:17:27;;;;;;;30.05;20.75;;;;;;;;;;5005190;28;20288;-64
2022/07/01 07:19:53;;;;;;;30.13;19.65;;;;;;;;;;5006446;28;20694;-64
2022/07/01 07:22:18;;;;;;;26.98;18.73;;;;;;;;;;5005673;28;20283;-63
2022/07/01 07:24:44;;;;;;;28.58;20.02;;;;;;;;;;5007259;28;20265;-64
2022/07/01 07:27:09;;;;;;;30.80;19.85;;;;;;;;;;5007017;28;20182;-67
2022/07/01 07:29:34;;;;;;;30.42;19.00;;;;;;;;;;5006219;28;20227;-63
2022/07/01 07:32:00;;;;;;;32.75;18.75;;;;;;;;;;5005725;28;20203;-64
2022/07/01 07:34:25;;;;;;;34.58;19.95;;;;;;;;;;5005329;28;20191;-63
2022/07/01 07:36:50;;;;;;;26.92;18.05;;;;;;;;;;5004118;28;20672;-64
2022/07/01 07:39:16;;;;;;;29.48;18.88;;;;;;;;;;5005865;28;20516;-64
2022/07/01 07:41:41;;;;;;;28.27;17.80;;;;;;;;;;5004604;28;20705;-64
2022/07/01 07:44:06;;;;;;;25.10;16.98;;;;;;;;;;5001861;28;20194;-64
2022/07/01 07:46:32;;;;;;;24.30;16.42;;;;;;;;;;5005991;28;20182;-68
2022/07/01 07:48:57;;;;;;;24.75;15.20;;;;;;;;;;5002196;28;20187;-67
2022/07/01 07:51:22;;;;;;;23.80;15.38;;;;;;;;;;5005604;28;20265;-64
2022/07/01 07:53:48;;;;;;;21.95;14.52;;;;;;;;;;5006125;28;20597;-64
2022/07/01 07:56:13;;;;;;;22.45;14.02;;;;;;;;;;5005121;28;20198;-64
2022/07/01 07:58:41;;;;;;;26.00;14.48;;;;;;;;;;5006096;28;20220;-63
2022/07/01 08:01:07;;;;;;;21.67;14.40;;;;;;;;;;5004149;28;20650;-64
2022/07/01 08:03:34;;;;;;;22.88;14.75;;;;;;;;;;5006333;28;20191;-64
2022/07/01 08:05:59;;;;;;;23.55;14.85;;;;;;;;;;5007255;28;20610;-65
2022/07/01 08:08:24;;;;;;;19.90;13.63;;;;;;;;;;5037578;28;20265;-64
2022/07/01 08:10:50;;;;;;;24.23;13.07;;;;;;;;;;5004156;28;20570;-65
2022/07/01 08:13:15;;;;;;;17.15;12.32;;;;;;;;;;5005946;28;20583;-64
2022/07/01 08:15:43;;;;;;;23.70;13.18;;;;;;;;;;5003125;28;20191;-63
2022/07/01 08:18:09;;;;;;;21.10;13.88;;;;;;;;;;5008580;28;20237;-64
2022/07/01 08:20:34;;;;;;;22.02;13.68;;;;;;;;;;5005425;28;20198;-64
2022/07/01 08:22:59;;;;;;;18.88;12.38;;;;;;;;;;5009198;28;20223;-63
2022/07/01 08:25:25;;;;;;;19.45;11.77;;;;;;;;;;5008341;28;20175;-63
2022/07/01 08:27:50;;;;;;;21.35;12.73;;;;;;;;;;5009058;28;20233;-64
2022/07/01 08:30:15;;;;;;;16.33;12.00;;;;;;;;;;5007127;28;20226;-64
2022/07/01 08:32:41;;;;;;;19.17;11.90;;;;;;;;;;5004252;28;20195;-65
2022/07/01 08:35:06;;;;;;;20.08;12.80;;;;;;;;;;4998223;28;20186;-63
2022/07/01 08:37:32;;;;;;;15.85;11.00;;;;;;;;;;5008727;28;20175;-67
2022/07/01 08:39:59;;;;;;;19.90;11.60;;;;;;;;;;5040888;28;20179;-65
2022/07/01 08:42:24;;;;;;;20.30;11.68;;;;;;;;;;5008553;28;20428;-64
2022/07/01 08:44:49;;;;;;;17.92;11.57;;;;;;;;;;5038801;28;20180;-65
2022/07/01 08:47:15;;;;;;;19.75;12.25;;;;;;;;;;5005900;28;20191;-64
2022/07/01 08:49:41;;;;;;;16.88;11.65;;;;;;;;;;5007492;28;20202;-65
2022/07/01 08:52:09;;;;;;;17.05;10.73;;;;;;;;;;5009294;28;20190;-65
2022/07/01 08:54:37;;;;;;;18.40;10.80;;;;;;;;;;5007530;28;20670;-65
2022/07/01 08:57:03;;;;;;;18.50;11.23;;;;;;;;;;5008364;28;20175;-64
2022/07/01 08:59:28;;;;;;;16.70;11.27;;;;;;;;;;5007537;28;20237;-66
2022/07/01 09:01:56;;;;;;;17.92;10.05;;;;;;;;;;5008532;28;20640;-63
2022/07/01 09:04:21;;;;;;;15.27;10.50;;;;;;;;;;5008138;28;20348;-64
2022/07/01 09:06:48;;;;;;;18.70;9.93;;;;;;;;;;5006169;28;20269;-63
2022/07/01 09:09:23;;;;;;;14.43;9.35;;;;;;;;;;5008007;28;20179;-64
2022/07/01 09:11:55;;;;;;;12.60;7.63;;;;;;;;;;5002798;28;20183;-64
2022/07/01 09:14:23;;;;;;;17.75;7.65;;;;;;;;;;5006728;28;20175;-66
2022/07/01 09:16:52;;;;;;;14.25;7.35;;;;;;;;;;5005660;28;20187;-66
2022/07/01 09:19:20;;;;;;;10.20;7.03;;;;;;;;;;5007282;28;20183;-66
2022/07/01 09:21:56;;;;;;;10.38;7.63;;;;;;;;;;5006539;28;20552;-64
2022/07/01 09:24:42;;;;;;;13.30;8.07;;;;;;;;;;5008579;28;20189;-65
2022/07/01 09:27:13;;;;;;;15.45;8.70;;;;;;;;;;5008680;28;20190;-65
2022/07/01 09:29:42;;;;;;;17.45;8.93;;;;;;;;;;5004899;28;20314;-65
2022/07/01 09:32:09;;;;;;;14.18;8.75;;;;;;;;;;5007791;28;20195;-64
2022/07/01 09:34:39;;;;;;;16.75;8.50;;;;;;;;;;5004965;28;20201;-65
2022/07/01 09:37:05;;;;;;;16.95;9.50;;;;;;;;;;5006205;28;20639;-63
2022/07/01 09:39:34;;;;;;;15.25;9.02;;;;;;;;;;5006189;28;20201;-66
2022/07/01 09:41:59;;;;;;;15.07;8.68;;;;;;;;;;5007261;28;20340;-65
2022/07/01 09:44:26;;;;;;;13.73;8.90;;;;;;;;;;5002264;28;20669;-65
2022/07/01 09:46:53;;;;;;;10.95;7.25;;;;;;;;;;5006641;28;20179;-66
2022/07/01 09:49:18;;;;;;;15.18;7.65;;;;;;;;;;5003552;28;20191;-65
2022/07/01 09:51:44;;;;;;;11.77;7.40;;;;;;;;;;5004990;28;20187;-65
2022/07/01 09:54:12;;;;;;;14.98;8.65;;;;;;;;;;5003213;28;20218;-66
2022/07/01 09:56:37;;;;;;;14.75;7.70;;;;;;;;;;5006307;28;20714;-64
2022/07/01 09:59:03;;;;;;;13.23;7.68;;;;;;;;;;5003816;28;20266;-67
2022/07/01 10:01:31;;;;;;;9.18;6.85;;;;;;;;;;5006170;28;20195;-66
2022/07/01 10:03:57;;;;;;;14.85;7.60;;;;;;;;;;5007222;28;20182;-64
2022/07/01 10:06:52;;;;;;;14.10;7.13;;;;;;;;;;5007518;28;20262;-65
2022/07/01 10:09:53;;;;;;;12.02;7.18;;;;;;;;;;5006501;28;20637;-64
2022/07/01 10:12:38;;;;;;;14.32;6.50;;;;;;;;;;4964149;28;20206;-64
2022/07/01 10:15:07;;;;;;;8.55;6.18;;;;;;;;;;5008728;28;20189;-65
2022/07/01 10:17:41;;;;;;;11.57;7.30;;;;;;;;;;5009023;28;20193;-64
2022/07/01 10:20:23;;;;;;;12.05;6.78;;;;;;;;;;5008811;28;20664;-65
2022/07/01 10:22:49;;;;;;;11.93;7.35;;;;;;;;;;5008607;28;20650;-64
2022/07/01 10:25:30;;;;;;;10.77;6.68;;;;;;;;;;5009030;28;20193;-64
2022/07/01 10:28:24;;;;;;;9.45;6.20;;;;;;;;;;5005739;28;20778;-64
2022/07/01 10:30:56;;;;;;;9.38;6.20;;;;;;;;;;5007253;28;20591;-64
2022/07/01 10:33:29;;;;;;;9.57;6.40;;;;;;;;;;5004413;28;20519;-67
2022/07/01 10:35:55;;;;;;;9.50;6.30;;;;;;;;;;4989316;28;20266;-64
2022/07/01 10:38:20;;;;;;;9.70;5.93;;;;;;;;;;4996936;28;20278;-65
2022/07/01 10:40:48;;;;;;;9.15;6.50;;;;;;;;;;5005072;28;20383;-65
2022/07/01 10:43:31;;;;;;;8.73;6.15;;;;;;;;;;5001212;28;20219;-65
2022/07/01 10:45:57;;;;;;;10.13;6.18;;;;;;;;;;5002137;28;20206;-65
2022/07/01 10:48:24;;;;;;;10.73;6.18;;;;;;;;;;5005887;28;20179;-64
2022/07/01 10:50:50;;;;;;;10.15;6.32;;;;;;;;;;5001751;28;20549;-66
2022/07/01 10:53:17;;;;;;;9.95;6.50;;;;;;;;;;5006610;28;20257;-63
2022/07/01 10:55:49;;;;;;;7.35;5.65;;;;;;;;;;5006416;28;20183;-64
2022/07/01 10:58:21;;;;;;;11.60;6.30;;;;;;;;;;5005203;28;20191;-65
2022/07/01 11:00:50;;;;;;;11.20;5.55;;;;;;;;;;5007376;28;20253;-66
2022/07/01 11:03:19;;;;;;;9.43;6.00;;;;;;;;;;5004902;28;20414;-64
2022/07/01 11:05:47;;;;;;;6.88;5.53;;;;;;;;;;5004429;28;20236;-63
2022/07/01 11:08:12;;;;;;;10.52;6.07;;;;;;;;;;4997347;28;20193;-64
2022/07/01 11:10:39;;;;;;;6.95;5.78;;;;;;;;;;4999830;28;20191;-64
2022/07/01 11:13:05;;;;;;;6.20;5.20;;;;;;;;;;4995810;28;20198;-62
2022/07/01 11:15:31;;;;;;;9.18;5.40;;;;;;;;;;5007691;28;20186;-65
2022/07/01 11:17:57;;;;;;;8.48;5.10;;;;;;;;;;4998880;28;20178;-64
2022/07/01 11:20:24;;;;;;;7.88;5.03;;;;;;;;;;4998355;28;20179;-64
2022/07/01 11:22:50;;;;;;;7.70;3.97;;;;;;;;;;4999736;28;20407;-66
2022/07/01 11:25:18;;;;;;;4.28;3.30;;;;;;;;;;5006633;28;20233;-65
2022/07/01 11:27:48;;;;;;;5.55;2.80;;;;;;;;;;5006877;28;20201;-63
2022/07/01 11:30:15;;;;;;;7.60;2.83;;;;;;;;;;4996292;28;20227;-67
2022/07/01 11:32:54;;;;;;;3.67;2.38;;;;;;;;;;4998034;28;20553;-64
2022/07/01 11:41:00;;;;;;;6.47;2.83;;;;;;;;;;4997076;28;20269;-63
2022/07/01 11:43:28;;;;;;;5.10;2.80;;;;;;;;;;5004812;28;20277;-62
2022/07/01 11:45:57;;;;;;;4.20;2.90;;;;;;;;;;5027846;28;20190;-63
2022/07/01 11:48:50;;;;;;;6.10;2.95;;;;;;;;;;4996360;28;20192;-63
2022/07/01 11:51:18;;;;;;;4.53;2.05;;;;;;;;;;5001309;28;20179;-64
2022/07/01 11:53:46;;;;;;;3.88;2.05;;;;;;;;;;5000396;28;20201;-63
2022/07/01 11:56:12;;;;;;;2.85;1.50;;;;;;;;;;5000956;28;20181;-65
2022/07/01 11:58:40;;;;;;;4.13;1.70;;;;;;;;;;5009559;28;20674;-64
2022/07/01 12:01:08;;;;;;;2.92;1.40;;;;;;;;;;5010930;28;20186;-64
2022/07/01 12:03:33;;;;;;;4.07;1.20;;;;;;;;;;5008094;28;20217;-63
2022/07/01 12:05:59;;;;;;;2.95;1.40;;;;;;;;;;5009057;28;20210;-64
2022/07/01 12:08:24;;;;;;;3.65;1.30;;;;;;;;;;5010721;28;20257;-65
2022/07/01 12:10:50;;;;;;;3.63;1.50;;;;;;;;;;5007668;28;20282;-63
2022/07/01 12:13:22;;;;;;;5.45;2.03;;;;;;;;;;5007867;28;20559;-66
2022/07/01 12:15:48;;;;;;;7.38;1.88;;;;;;;;;;5001573;28;20183;-62
2022/07/01 12:18:15;;;;;;;4.00;1.52;;;;;;;;;;5009472;28;20198;-64
2022/07/01 12:20:48;;;;;;;5.35;1.90;;;;;;;;;;4999908;28;20635;-64
2022/07/01 12:23:14;;;;;;;2.88;1.52;;;;;;;;;;5010507;28;20206;-62
2022/07/01 12:25:39;;;;;;;6.50;2.13;;;;;;;;;;5002162;28;20194;-62
2022/07/01 12:28:05;;;;;;;4.45;1.00;;;;;;;;;;5009432;28;20683;-63
2022/07/01 12:30:33;;;;;;;2.20;0.85;;;;;;;;;;5007325;28;20315;-63
2022/07/01 12:33:07;;;;;;;2.42;1.20;;;;;;;;;;5005492;28;20301;-65
2022/07/01 12:35:36;;;;;;;4.07;1.27;;;;;;;;;;5009474;28;20197;-63
2022/07/01 12:38:06;;;;;;;2.97;1.05;;;;;;;;;;5010621;28;20600;-63
2022/07/01 12:40:31;;;;;;;2.50;1.30;;;;;;;;;;5007363;28;20217;-64
2022/07/01 12:42:59;;;;;;;2.05;1.05;;;;;;;;;;5005112;28;20202;-63
2022/07/01 12:45:26;;;;;;;3.33;0.98;;;;;;;;;;5006882;28;20178;-63
2022/07/01 12:47:55;;;;;;;2.13;0.80;;;;;;;;;;5002675;28;20651;-64
2022/07/01 12:50:21;;;;;;;2.63;1.00;;;;;;;;;;5008454;28;20270;-66
2022/07/01 12:52:59;;;;;;;1.73;0.80;;;;;;;;;;5001297;28;20193;-65
2022/07/01 12:55:25;;;;;;;3.83;0.77;;;;;;;;;;5010542;28;20315;-64
2022/07/01 12:57:59;;;;;;;3.58;0.88;;;;;;;;;;5003004;28;20557;-64
2022/07/01 13:00:27;;;;;;;5.63;1.10;;;;;;;;;;5007476;28;20179;-64
2022/07/01 13:02:54;;;;;;;3.67;1.13;;;;;;;;;;5007184;28;20564;-65
2022/07/01 13:05:20;;;;;;;4.82;0.80;;;;;;;;;;5009224;28;20526;-62
2022/07/01 13:07:45;;;;;;;5.10;0.90;;;;;;;;;;5010383;28;20187;-64
2022/07/01 13:10:11;;;;;;;2.60;0.98;;;;;;;;;;5007521;28;20696;-66
2022/07/01 13:12:36;;;;;;;3.35;0.90;;;;;;;;;;5006530;28;20179;-63
2022/07/01 13:15:03;;;;;;;2.75;0.85;;;;;;;;;;5007937;28;20227;-66
2022/07/01 13:17:28;;;;;;;1.98;0.75;;;;;;;;;;5006285;28;20232;-63
2022/07/01 13:19:53;;;;;;;2.00;0.80;;;;;;;;;;5007113;28;20643;-67
2022/07/01 13:22:19;;;;;;;3.13;0.98;;;;;;;;;;5008875;28;20639;-65
2022/07/01 13:24:45;;;;;;;1.48;0.60;;;;;;;;;;5005254;28;20195;-62
2022/07/01 13:27:11;;;;;;;2.35;0.70;;;;;;;;;;5006328;28;20677;-64
2022/07/01 13:29:36;;;;;;;2.88;0.82;;;;;;;;;;5005758;28;20252;-65
2022/07/01 13:32:02;;;;;;;1.75;0.65;;;;;;;;;;5005636;28;20253;-63
2022/07/01 13:34:27;;;;;;;3.05;0.50;;;;;;;;;;5007646;28;20707;-63
2022/07/01 13:36:52;;;;;;;1.70;0.70;;;;;;;;;;5006066;28;20596;-66
2022/07/01 13:39:18;;;;;;;1.58;0.70;;;;;;;;;;5007425;28;20187;-65
2022/07/01 13:41:43;;;;;;;5.57;0.63;;;;;;;;;;5005439;28;21059;-64
2022/07/01 13:44:09;;;;;;;2.35;0.70;;;;;;;;;;5007538;28;20257;-64
2022/07/01 13:46:34;;;;;;;1.80;0.70;;;;;;;;;;5006880;28;20182;-65
2022/07/01 13:49:01;;;;;;;3.75;0.90;;;;;;;;;;5007447;28;20229;-63
2022/07/01 13:51:26;;;;;;;3.65;0.80;;;;;;;;;;5006324;28;20261;-64
2022/07/01 13:53:52;;;;;;;2.38;0.70;;;;;;;;;;5003309;28;20575;-65
2022/07/01 13:56:17;;;;;;;0.95;0.50;;;;;;;;;;5005394;28;20314;-64
2022/07/01 13:58:43;;;;;;;1.95;0.60;;;;;;;;;;5004767;28;20297;-62
2022/07/01 14:01:08;;;;;;;1.75;0.70;;;;;;;;;;5007267;28;20179;-65
2022/07/01 14:03:34;;;;;;;3.45;1.20;;;;;;;;;;5006642;28;20195;-65
2022/07/01 14:05:59;;;;;;;1.83;0.70;;;;;;;;;;5006998;28;20262;-64
2022/07/01 14:08:26;;;;;;;2.80;0.70;;;;;;;;;;5006781;28;20199;-63
2022/07/01 14:10:52;;;;;;;2.88;1.02;;;;;;;;;;5001667;28;20190;-67
2022/07/01 14:13:20;;;;;;;3.20;1.00;;;;;;;;;;5005978;28;20187;-64
2022/07/01 14:15:46;;;;;;;2.60;1.15;;;;;;;;;;5005787;28;20179;-63
2022/07/01 14:18:11;;;;;;;1.88;0.70;;;;;;;;;;5006500;28;20244;-64
2022/07/01 14:20:37;;;;;;;2.35;0.80;;;;;;;;;;5006178;28;20186;-63
2022/07/01 14:23:02;;;;;;;2.22;0.82;;;;;;;;;;5007001;28;20641;-64
2022/07/01 14:25:28;;;;;;;1.17;0.47;;;;;;;;;;5004766;28;20216;-66
2022/07/01 14:27:53;;;;;;;3.95;1.02;;;;;;;;;;5005821;28;20187;-64
2022/07/01 14:30:18;;;;;;;3.40;0.70;;;;;;;;;;5004177;28;20218;-65
2022/07/01 14:32:44;;;;;;;3.10;0.55;;;;;;;;;;5005671;28;20202;-64
2022/07/01 14:35:09;;;;;;;1.55;0.65;;;;;;;;;;5004537;28;20240;-65
2022/07/01 14:37:37;;;;;;;1.88;0.50;;;;;;;;;;5005779;28;20531;-65
2022/07/01 14:40:03;;;;;;;2.10;0.50;;;;;;;;;;5006827;28;20990;-65
2022/07/01 14:42:29;;;;;;;2.80;0.57;;;;;;;;;;5003773;28;20219;-63